Time;durP1;ratioP1;P1;durP2;ratioP2;P2;SDS_P1;SDS_P2;PMS_P1;PMS_P2;Temp;Humidity;BMP_temperature;BMP_pressure;BME280_temperature;BME280_humidity;BME280_pressure;Samples;Min_cycle;Max_cycle;Signal;HPM_P1;HPM_P2
2022/07/23 00:01:36;;;;;;;10.52;4.20;;;;;;;;;;4915962;29;20479;-64
2022/07/23 00:04:02;;;;;;;12.02;4.22;;;;;;;;;;4915469;29;20059;-65
2022/07/23 00:06:28;;;;;;;10.10;4.90;;;;;;;;;;4916204;29;20043;-65
2022/07/23 00:08:53;;;;;;;10.25;4.40;;;;;;;;;;4915143;29;20695;-65
2022/07/23 00:11:21;;;;;;;6.60;3.97;;;;;;;;;;4916033;29;20557;-65
2022/07/23 00:13:48;;;;;;;7.28;3.80;;;;;;;;;;4909528;29;20076;-65
2022/07/23 00:16:13;;;;;;;7.28;3.50;;;;;;;;;;4913518;29;20032;-65
2022/07/23 00:18:39;;;;;;;6.07;3.55;;;;;;;;;;4896489;29;20510;-64
2022/07/23 00:21:11;;;;;;;7.00;3.97;;;;;;;;;;4915428;29;20043;-65
2022/07/23 00:23:37;;;;;;;9.30;4.07;;;;;;;;;;4914705;29;20069;-65
2022/07/23 00:26:03;;;;;;;10.75;3.88;;;;;;;;;;4915564;29;20079;-66
2022/07/23 00:28:29;;;;;;;8.80;4.07;;;;;;;;;;4914204;29;20497;-64
2022/07/23 00:30:55;;;;;;;5.63;3.50;;;;;;;;;;4915417;29;20107;-64
2022/07/23 00:33:21;;;;;;;10.55;4.00;;;;;;;;;;4914662;29;20855;-67
2022/07/23 00:35:47;;;;;;;6.97;3.90;;;;;;;;;;4909451;29;20119;-65
2022/07/23 00:38:12;;;;;;;8.27;4.20;;;;;;;;;;4900592;29;20089;-65
2022/07/23 00:40:39;;;;;;;8.68;4.05;;;;;;;;;;4896424;29;20048;-67
2022/07/23 00:43:06;;;;;;;10.90;4.07;;;;;;;;;;4895831;29;20503;-65
2022/07/23 00:45:32;;;;;;;8.88;4.57;;;;;;;;;;4896465;29;20037;-65
2022/07/23 00:47:58;;;;;;;7.93;4.38;;;;;;;;;;4878842;29;20041;-65
2022/07/23 00:50:24;;;;;;;9.80;4.60;;;;;;;;;;4896438;29;20029;-65
2022/07/23 00:52:50;;;;;;;12.25;4.53;;;;;;;;;;4895506;29;20562;-65
2022/07/23 00:55:16;;;;;;;14.30;4.65;;;;;;;;;;4896383;29;20048;-68
2022/07/23 00:57:42;;;;;;;10.98;4.30;;;;;;;;;;4895876;29;20036;-65
2022/07/23 01:00:11;;;;;;;17.13;6.13;;;;;;;;;;4911583;29;20388;-67
2022/07/23 01:02:37;;;;;;;13.30;6.15;;;;;;;;;;4900058;29;20036;-64
2022/07/23 01:05:04;;;;;;;11.40;4.93;;;;;;;;;;4900895;29;20028;-65
2022/07/23 01:07:30;;;;;;;12.32;4.85;;;;;;;;;;4878818;29;20080;-67
2022/07/23 01:09:56;;;;;;;13.43;5.00;;;;;;;;;;4879638;29;20032;-65
2022/07/23 01:12:22;;;;;;;11.07;4.75;;;;;;;;;;4894552;29;20033;-68
2022/07/23 01:14:59;;;;;;;10.52;5.72;;;;;;;;;;4879228;29;20519;-66
2022/07/23 01:17:27;;;;;;;9.30;4.93;;;;;;;;;;4878862;29;20035;-65
2022/07/23 01:19:53;;;;;;;15.60;5.35;;;;;;;;;;4879292;29;20052;-67
2022/07/23 01:22:19;;;;;;;10.40;5.53;;;;;;;;;;4895973;29;20028;-65
2022/07/23 01:24:46;;;;;;;9.30;4.90;;;;;;;;;;4896009;29;20429;-65
2022/07/23 01:27:17;;;;;;;10.75;5.13;;;;;;;;;;4878737;29;20135;-65
2022/07/23 01:29:44;;;;;;;7.90;4.97;;;;;;;;;;4878974;29;20033;-66
2022/07/23 01:32:15;;;;;;;6.72;4.90;;;;;;;;;;4894654;29;20284;-67
2022/07/23 01:34:41;;;;;;;7.45;4.47;;;;;;;;;;4878615;29;20047;-66
2022/07/23 01:37:06;;;;;;;15.15;5.20;;;;;;;;;;4878941;29;20123;-67
2022/07/23 01:39:32;;;;;;;9.98;5.18;;;;;;;;;;4881191;29;20120;-65
2022/07/23 01:41:58;;;;;;;14.07;5.28;;;;;;;;;;4882406;29;20083;-67
2022/07/23 01:44:25;;;;;;;15.52;5.90;;;;;;;;;;4882071;29;20044;-68
2022/07/23 01:46:51;;;;;;;14.43;5.25;;;;;;;;;;4898849;29;20037;-65
2022/07/23 01:49:18;;;;;;;12.80;5.60;;;;;;;;;;4881643;29;20836;-65
2022/07/23 01:52:10;;;;;;;11.30;5.07;;;;;;;;;;4898611;29;20040;-67
2022/07/23 01:54:42;;;;;;;11.85;5.43;;;;;;;;;;4881605;29;20037;-65
2022/07/23 01:57:09;;;;;;;11.48;5.78;;;;;;;;;;4882182;29;20132;-67
2022/07/23 01:59:35;;;;;;;11.57;5.40;;;;;;;;;;4881324;29;20119;-65
2022/07/23 02:02:03;;;;;;;14.60;6.13;;;;;;;;;;4882420;29;20518;-65
2022/07/23 02:04:30;;;;;;;14.95;5.78;;;;;;;;;;4898953;29;20044;-66
2022/07/23 02:06:56;;;;;;;14.75;5.68;;;;;;;;;;4881871;29;20037;-65
2022/07/23 02:09:22;;;;;;;15.65;6.38;;;;;;;;;;4916552;29;20028;-64
2022/07/23 02:11:48;;;;;;;9.60;5.32;;;;;;;;;;4917891;29;20487;-64
2022/07/23 02:14:14;;;;;;;8.55;5.28;;;;;;;;;;4900196;29;20040;-66
2022/07/23 02:16:40;;;;;;;10.75;5.93;;;;;;;;;;4917646;29;20036;-65
2022/07/23 02:19:05;;;;;;;11.88;5.22;;;;;;;;;;4916868;29;20039;-65
2022/07/23 02:21:31;;;;;;;14.88;5.22;;;;;;;;;;4900929;29;20056;-64
2022/07/23 02:23:57;;;;;;;14.55;5.57;;;;;;;;;;4916904;29;20083;-65
2022/07/23 02:26:23;;;;;;;14.57;5.35;;;;;;;;;;4899494;29;20126;-70
2022/07/23 02:28:52;;;;;;;16.13;5.82;;;;;;;;;;4886361;29;20048;-65
2022/07/23 02:31:19;;;;;;;11.27;5.30;;;;;;;;;;4909105;29;20043;-66
2022/07/23 02:33:45;;;;;;;11.25;5.30;;;;;;;;;;4914158;29;20031;-65
2022/07/23 02:36:11;;;;;;;10.18;5.45;;;;;;;;;;4917592;29;20048;-65
2022/07/23 02:38:37;;;;;;;12.25;5.78;;;;;;;;;;4909902;29;20047;-65
2022/07/23 02:41:03;;;;;;;10.73;5.75;;;;;;;;;;4915368;29;20036;-65
2022/07/23 02:43:29;;;;;;;10.90;5.50;;;;;;;;;;4916562;29;20119;-66
2022/07/23 02:45:55;;;;;;;11.25;5.80;;;;;;;;;;4900113;29;20091;-65
2022/07/23 02:48:21;;;;;;;13.10;5.57;;;;;;;;;;4915138;29;20040;-65
2022/07/23 02:50:48;;;;;;;14.55;5.15;;;;;;;;;;4908231;29;20048;-65
2022/07/23 02:53:18;;;;;;;11.20;5.57;;;;;;;;;;4880333;29;20058;-65
2022/07/23 02:55:44;;;;;;;14.10;5.55;;;;;;;;;;4896429;29;20052;-67
2022/07/23 02:58:10;;;;;;;9.63;5.18;;;;;;;;;;4897596;29;20480;-65
2022/07/23 03:00:36;;;;;;;10.63;5.50;;;;;;;;;;4896617;29;20134;-66
2022/07/23 03:03:02;;;;;;;12.60;5.78;;;;;;;;;;4900233;29;20415;-65
2022/07/23 03:05:29;;;;;;;14.40;5.95;;;;;;;;;;4880734;29;20052;-66
2022/07/23 03:07:55;;;;;;;12.32;5.57;;;;;;;;;;4897144;29;20037;-66
2022/07/23 03:10:21;;;;;;;12.90;6.00;;;;;;;;;;4880698;29;20036;-65
2022/07/23 03:12:46;;;;;;;16.50;6.43;;;;;;;;;;4896925;29;20040;-67
2022/07/23 03:15:12;;;;;;;17.08;5.95;;;;;;;;;;4880126;29;20496;-65
2022/07/23 03:17:38;;;;;;;9.02;4.93;;;;;;;;;;4896164;29;20048;-67
2022/07/23 03:20:04;;;;;;;9.57;5.93;;;;;;;;;;4895881;29;20040;-65
2022/07/23 03:22:30;;;;;;;34.17;10.52;;;;;;;;;;4895762;29;20036;-66
2022/07/23 03:24:56;;;;;;;20.52;7.50;;;;;;;;;;4896141;29;20069;-66
2022/07/23 03:27:34;;;;;;;19.23;7.13;;;;;;;;;;4880281;29;20060;-65
2022/07/23 03:30:00;;;;;;;17.48;7.05;;;;;;;;;;4895225;29;20064;-65
2022/07/23 03:32:26;;;;;;;17.80;7.15;;;;;;;;;;4897303;29;20047;-65
2022/07/23 03:34:53;;;;;;;17.55;7.30;;;;;;;;;;4895798;29;20036;-66
2022/07/23 03:37:20;;;;;;;15.13;5.63;;;;;;;;;;4879928;29;20076;-66
2022/07/23 03:39:47;;;;;;;18.77;6.97;;;;;;;;;;4879609;29;20036;-66
2022/07/23 03:42:13;;;;;;;17.13;6.25;;;;;;;;;;4895681;29;20040;-65
2022/07/23 03:44:39;;;;;;;14.10;6.53;;;;;;;;;;4896494;29;20070;-66
2022/07/23 03:47:05;;;;;;;10.63;5.40;;;;;;;;;;4880496;29;20035;-64
2022/07/23 03:49:32;;;;;;;9.98;4.88;;;;;;;;;;4895471;29;20086;-65
2022/07/23 03:51:58;;;;;;;9.63;5.05;;;;;;;;;;4879872;29;20048;-66
2022/07/23 03:54:24;;;;;;;6.18;4.78;;;;;;;;;;4895934;29;20044;-66
2022/07/23 03:56:50;;;;;;;10.88;4.75;;;;;;;;;;4898101;29;20048;-65
2022/07/23 03:59:16;;;;;;;12.10;4.43;;;;;;;;;;4914972;29;20032;-64
2022/07/23 04:01:43;;;;;;;12.50;4.85;;;;;;;;;;4914236;29;20554;-65
2022/07/23 04:04:09;;;;;;;6.70;4.70;;;;;;;;;;4898365;29;20067;-64
2022/07/23 04:06:37;;;;;;;8.27;4.65;;;;;;;;;;4898486;29;20059;-66
2022/07/23 04:09:04;;;;;;;10.70;4.40;;;;;;;;;;4897554;29;20547;-65
2022/07/23 04:11:31;;;;;;;12.95;5.05;;;;;;;;;;4898449;29;20517;-66
2022/07/23 04:13:57;;;;;;;9.75;4.47;;;;;;;;;;4915041;29;20115;-65
2022/07/23 04:16:23;;;;;;;9.57;4.50;;;;;;;;;;4898389;29;20040;-65
2022/07/23 04:18:49;;;;;;;8.15;4.35;;;;;;;;;;4897723;29;20079;-65
2022/07/23 04:21:18;;;;;;;11.18;4.95;;;;;;;;;;4898418;29;20498;-65
2022/07/23 04:23:45;;;;;;;7.07;3.83;;;;;;;;;;4897472;29;20044;-65
2022/07/23 04:26:12;;;;;;;8.88;4.10;;;;;;;;;;4913846;29;20095;-66
2022/07/23 04:28:39;;;;;;;7.97;4.07;;;;;;;;;;4913271;29;20427;-66
2022/07/23 04:31:05;;;;;;;10.18;4.57;;;;;;;;;;4914909;29;20051;-66
2022/07/23 04:33:32;;;;;;;8.63;4.20;;;;;;;;;;4906040;29;20040;-67
2022/07/23 04:36:27;;;;;;;10.60;4.82;;;;;;;;;;4886019;29;20424;-64
2022/07/23 04:38:54;;;;;;;5.30;3.80;;;;;;;;;;4874892;29;20065;-64
2022/07/23 04:41:20;;;;;;;7.75;3.88;;;;;;;;;;4875434;29;20060;-65
2022/07/23 04:43:47;;;;;;;11.15;4.15;;;;;;;;;;4868248;29;20408;-65
2022/07/23 04:46:13;;;;;;;8.88;3.95;;;;;;;;;;4902359;29;20075;-64
2022/07/23 04:48:45;;;;;;;6.03;4.03;;;;;;;;;;4885161;29;20033;-66
2022/07/23 04:51:11;;;;;;;6.60;4.07;;;;;;;;;;4893377;29;20579;-63
2022/07/23 04:53:38;;;;;;;12.77;4.80;;;;;;;;;;4877772;29;20576;-66
2022/07/23 04:56:05;;;;;;;9.13;4.40;;;;;;;;;;4893383;29;20148;-66
2022/07/23 04:58:32;;;;;;;8.38;4.40;;;;;;;;;;4892607;29;20144;-64
2022/07/23 05:00:58;;;;;;;6.07;4.05;;;;;;;;;;4877122;29;20090;-65
2022/07/23 05:03:24;;;;;;;11.07;3.92;;;;;;;;;;4877435;29;20451;-63
2022/07/23 05:05:50;;;;;;;7.72;4.30;;;;;;;;;;4870313;29;20068;-64
2022/07/23 05:08:18;;;;;;;5.07;3.95;;;;;;;;;;4893675;29;20049;-65
2022/07/23 05:10:49;;;;;;;6.90;4.25;;;;;;;;;;4878635;29;20043;-64
2022/07/23 05:13:16;;;;;;;8.30;3.92;;;;;;;;;;4879608;29;20036;-65
2022/07/23 05:15:42;;;;;;;7.47;4.38;;;;;;;;;;4882895;29;20040;-65
2022/07/23 05:18:08;;;;;;;6.32;4.57;;;;;;;;;;4882543;29;20168;-65
2022/07/23 05:20:35;;;;;;;6.25;4.00;;;;;;;;;;4906115;29;20036;-64
2022/07/23 05:23:01;;;;;;;9.35;4.40;;;;;;;;;;4900300;29;20099;-65
2022/07/23 05:25:27;;;;;;;6.30;4.13;;;;;;;;;;4916881;29;20040;-65
2022/07/23 05:27:53;;;;;;;5.53;3.80;;;;;;;;;;4916853;29;20036;-65
2022/07/23 05:30:19;;;;;;;7.78;4.40;;;;;;;;;;4917903;29;20024;-65
2022/07/23 05:32:47;;;;;;;6.93;4.53;;;;;;;;;;4901100;29;20067;-65
2022/07/23 05:35:16;;;;;;;10.35;4.97;;;;;;;;;;4916577;29;20398;-65
2022/07/23 05:37:49;;;;;;;9.45;4.38;;;;;;;;;;4916894;29;20032;-64
2022/07/23 05:40:16;;;;;;;5.70;4.40;;;;;;;;;;4901170;29;20047;-66
2022/07/23 05:42:42;;;;;;;7.43;4.72;;;;;;;;;;4918044;29;20035;-65
2022/07/23 05:45:08;;;;;;;12.65;4.60;;;;;;;;;;4900901;29;20040;-66
2022/07/23 05:47:44;;;;;;;8.48;4.60;;;;;;;;;;4901280;29;20040;-65
2022/07/23 05:50:12;;;;;;;9.80;4.78;;;;;;;;;;4916820;29;20036;-65
2022/07/23 05:52:44;;;;;;;5.18;4.20;;;;;;;;;;4916897;29;20036;-65
2022/07/23 05:55:28;;;;;;;6.93;4.43;;;;;;;;;;4918008;29;20048;-65
2022/07/23 05:57:56;;;;;;;7.18;4.68;;;;;;;;;;4902218;29;20038;-64
2022/07/23 06:00:24;;;;;;;8.38;4.30;;;;;;;;;;4899565;29;20036;-65
2022/07/23 06:02:50;;;;;;;8.82;4.38;;;;;;;;;;4909652;29;20506;-64
2022/07/23 06:05:16;;;;;;;8.65;4.10;;;;;;;;;;4911121;29;20139;-65
2022/07/23 06:07:45;;;;;;;7.88;3.90;;;;;;;;;;4900572;29;20036;-66
2022/07/23 06:10:12;;;;;;;7.60;3.97;;;;;;;;;;4900579;29;20523;-66
2022/07/23 06:12:39;;;;;;;9.15;3.95;;;;;;;;;;4901200;29;20555;-69
2022/07/23 06:15:05;;;;;;;10.80;4.20;;;;;;;;;;4901595;29;20039;-69
2022/07/23 06:17:33;;;;;;;12.00;4.22;;;;;;;;;;4901307;29;20032;-66
2022/07/23 06:19:59;;;;;;;9.65;3.85;;;;;;;;;;4901565;29;20035;-68
2022/07/23 06:22:25;;;;;;;9.25;4.18;;;;;;;;;;4902255;29;20035;-69
2022/07/23 06:24:51;;;;;;;9.00;4.30;;;;;;;;;;4900716;29;20036;-68
2022/07/23 06:27:19;;;;;;;11.32;4.65;;;;;;;;;;4899721;29;20446;-68
2022/07/23 06:29:45;;;;;;;9.15;4.05;;;;;;;;;;4908031;29;20109;-67
2022/07/23 06:32:11;;;;;;;8.40;4.18;;;;;;;;;;4884116;29;20040;-69
2022/07/23 06:34:37;;;;;;;10.32;4.15;;;;;;;;;;4918764;29;20171;-68
2022/07/23 06:37:03;;;;;;;7.97;4.10;;;;;;;;;;4901438;29;20512;-69
2022/07/23 06:39:29;;;;;;;7.90;4.18;;;;;;;;;;4901597;29;20036;-68
2022/07/23 06:41:57;;;;;;;9.40;4.03;;;;;;;;;;4901289;29;20028;-68
2022/07/23 06:44:35;;;;;;;8.45;3.83;;;;;;;;;;4901522;29;20515;-68
2022/07/23 06:47:00;;;;;;;6.20;3.75;;;;;;;;;;4900118;29;20080;-67
2022/07/23 06:49:26;;;;;;;9.48;3.63;;;;;;;;;;4890695;29;20041;-66
2022/07/23 06:51:52;;;;;;;10.65;3.92;;;;;;;;;;4882599;29;20049;-66
2022/07/23 06:54:18;;;;;;;9.55;4.13;;;;;;;;;;4903077;29;20040;-67
2022/07/23 06:56:44;;;;;;;7.22;3.70;;;;;;;;;;4917656;29;20400;-67
2022/07/23 06:59:10;;;;;;;10.32;4.40;;;;;;;;;;4914533;29;20056;-67
2022/07/23 07:01:36;;;;;;;8.43;3.70;;;;;;;;;;4900710;29;20071;-68
2022/07/23 07:04:01;;;;;;;9.02;3.45;;;;;;;;;;4917274;29;20072;-66
2022/07/23 07:06:27;;;;;;;8.98;3.80;;;;;;;;;;4917380;29;20060;-66
2022/07/23 07:08:53;;;;;;;8.70;3.58;;;;;;;;;;4917426;29;20035;-67
2022/07/23 07:11:19;;;;;;;7.15;3.55;;;;;;;;;;4917074;29;20384;-66
2022/07/23 07:13:44;;;;;;;11.63;3.63;;;;;;;;;;4917317;29;20395;-68
2022/07/23 07:16:10;;;;;;;7.38;3.97;;;;;;;;;;4912336;29;20111;-67
2022/07/23 07:18:36;;;;;;;8.63;4.07;;;;;;;;;;4914518;29;20036;-67
2022/07/23 07:21:02;;;;;;;7.85;3.70;;;;;;;;;;4921768;29;20044;-68
2022/07/23 07:23:28;;;;;;;6.88;3.70;;;;;;;;;;4919302;29;20049;-67
2022/07/23 07:25:53;;;;;;;10.13;4.15;;;;;;;;;;4897339;29;20108;-70
2022/07/23 07:28:19;;;;;;;8.00;3.67;;;;;;;;;;4916652;29;20092;-71
2022/07/23 07:30:45;;;;;;;5.22;3.35;;;;;;;;;;4916881;29;20036;-73
2022/07/23 07:33:11;;;;;;;6.68;3.65;;;;;;;;;;4917116;29;20044;-70
2022/07/23 07:35:37;;;;;;;7.43;3.38;;;;;;;;;;4916747;29;20040;-67
2022/07/23 07:38:02;;;;;;;7.72;3.83;;;;;;;;;;4916494;29;20032;-67
2022/07/23 07:40:28;;;;;;;8.30;3.58;;;;;;;;;;4916444;29;20420;-67
2022/07/23 07:42:56;;;;;;;5.97;3.50;;;;;;;;;;4916444;29;20032;-67
2022/07/23 07:45:24;;;;;;;6.50;3.40;;;;;;;;;;4916848;29;20040;-68
2022/07/23 07:47:52;;;;;;;6.18;3.65;;;;;;;;;;4916671;29;20036;-66
2022/07/23 07:50:18;;;;;;;4.97;3.20;;;;;;;;;;4916584;29;20047;-68
2022/07/23 07:52:44;;;;;;;8.70;3.85;;;;;;;;;;4916695;29;20091;-67
2022/07/23 07:55:10;;;;;;;7.78;3.70;;;;;;;;;;4914820;29;20048;-67
2022/07/23 07:57:36;;;;;;;5.35;3.30;;;;;;;;;;4911716;29;20046;-68
2022/07/23 08:00:05;;;;;;;5.78;3.13;;;;;;;;;;4916075;29;20032;-67
2022/07/23 08:02:51;;;;;;;12.27;3.83;;;;;;;;;;4914453;29;20064;-67
2022/07/23 08:05:24;;;;;;;5.18;3.10;;;;;;;;;;4913197;29;20044;-70
2022/07/23 08:07:50;;;;;;;5.15;3.17;;;;;;;;;;4915728;29;20044;-68
2022/07/23 08:10:17;;;;;;;6.63;3.03;;;;;;;;;;4910395;29;20032;-68
2022/07/23 08:12:53;;;;;;;9.27;3.20;;;;;;;;;;4899816;29;20510;-68
2022/07/23 08:15:20;;;;;;;8.88;3.70;;;;;;;;;;4911245;29;20400;-68
2022/07/23 08:17:47;;;;;;;5.00;3.03;;;;;;;;;;4916185;29;20484;-70
2022/07/23 08:20:16;;;;;;;8.90;3.33;;;;;;;;;;4915612;29;20040;-67
2022/07/23 08:22:59;;;;;;;7.35;3.38;;;;;;;;;;4912561;29;20044;-67
2022/07/23 08:25:31;;;;;;;8.75;3.17;;;;;;;;;;4915168;29;20032;-68
2022/07/23 08:27:57;;;;;;;4.40;3.30;;;;;;;;;;4911751;29;20117;-69
2022/07/23 08:30:24;;;;;;;7.30;3.53;;;;;;;;;;4914513;29;20064;-68
2022/07/23 08:33:11;;;;;;;6.80;3.47;;;;;;;;;;4915186;29;20115;-67
2022/07/23 08:35:39;;;;;;;7.30;2.92;;;;;;;;;;4912361;29;20694;-68
2022/07/23 08:38:07;;;;;;;4.97;3.38;;;;;;;;;;4908933;29;20100;-69
2022/07/23 08:40:35;;;;;;;11.15;3.65;;;;;;;;;;4912584;29;20032;-71
2022/07/23 08:43:05;;;;;;;7.07;3.33;;;;;;;;;;4911541;29;20044;-68
2022/07/23 08:45:36;;;;;;;6.25;3.42;;;;;;;;;;4911766;29;20443;-70
2022/07/23 08:48:03;;;;;;;8.45;3.53;;;;;;;;;;4907095;29;20032;-67
2022/07/23 08:50:29;;;;;;;9.68;3.40;;;;;;;;;;4903692;29;20036;-68
2022/07/23 08:52:56;;;;;;;8.43;3.90;;;;;;;;;;4913661;29;20059;-67
2022/07/23 08:55:23;;;;;;;6.13;3.20;;;;;;;;;;4913627;29;20063;-70
2022/07/23 08:57:51;;;;;;;8.38;3.65;;;;;;;;;;4914946;29;20395;-67
2022/07/23 09:00:19;;;;;;;10.00;3.15;;;;;;;;;;4914361;29;20046;-68
2022/07/23 09:02:46;;;;;;;4.78;3.30;;;;;;;;;;4914351;29;20501;-69
2022/07/23 09:05:13;;;;;;;12.13;3.88;;;;;;;;;;4914798;29;20123;-68
2022/07/23 09:08:19;;;;;;;7.70;3.72;;;;;;;;;;4914036;29;20040;-68
2022/07/23 09:10:49;;;;;;;5.40;3.35;;;;;;;;;;4838311;29;20497;-67
2022/07/23 09:13:31;;;;;;;6.03;3.28;;;;;;;;;;4837301;29;20484;-68
2022/07/23 09:16:19;;;;;;;10.65;3.58;;;;;;;;;;4868087;29;20058;-66
2022/07/23 09:18:47;;;;;;;12.15;3.42;;;;;;;;;;4912593;29;20063;-67
2022/07/23 09:21:22;;;;;;;6.30;3.83;;;;;;;;;;4913361;29;20513;-67
2022/07/23 09:23:52;;;;;;;7.03;3.45;;;;;;;;;;4913447;29;20040;-67
2022/07/23 09:26:49;;;;;;;6.90;3.42;;;;;;;;;;4915219;29;20127;-67
2022/07/23 09:29:17;;;;;;;10.10;3.33;;;;;;;;;;4914125;29;20475;-66
2022/07/23 09:31:50;;;;;;;5.38;3.33;;;;;;;;;;4912192;29;20115;-66
2022/07/23 09:34:25;;;;;;;6.60;3.58;;;;;;;;;;4910179;29;20037;-66
2022/07/23 09:37:12;;;;;;;7.00;3.58;;;;;;;;;;4915063;29;20119;-67
2022/07/23 09:39:37;;;;;;;5.82;3.42;;;;;;;;;;4913755;29;20036;-69
2022/07/23 09:42:17;;;;;;;9.10;3.65;;;;;;;;;;4915300;29;20190;-67
2022/07/23 11:30:31;;;;;;;8.75;3.95;;;;;;;;;;5128841;22;20462;-72
2022/07/23 11:33:07;;;;;;;9.32;4.30;;;;;;;;;;5109450;28;20039;-73
2022/07/23 11:35:34;;;;;;;11.40;3.72;;;;;;;;;;5108731;28;20436;-74
2022/07/23 11:38:07;;;;;;;7.43;3.55;;;;;;;;;;5076599;28;20044;-73
2022/07/23 11:40:34;;;;;;;9.38;3.65;;;;;;;;;;5048503;28;20116;-72
2022/07/23 11:43:03;;;;;;;14.90;4.45;;;;;;;;;;5047982;28;21072;-73
2022/07/23 11:45:34;;;;;;;9.18;4.15;;;;;;;;;;5050140;28;20041;-73
2022/07/23 11:48:01;;;;;;;6.78;3.90;;;;;;;;;;5048326;28;20025;-72
2022/07/23 11:50:27;;;;;;;8.82;4.05;;;;;;;;;;5048046;28;20431;-73
2022/07/23 11:52:54;;;;;;;6.80;3.85;;;;;;;;;;5047903;28;20379;-73
2022/07/23 11:55:20;;;;;;;8.73;3.88;;;;;;;;;;5046954;28;20057;-71
2022/07/23 11:57:46;;;;;;;7.22;3.95;;;;;;;;;;5046164;28;20045;-71
2022/07/23 12:00:18;;;;;;;9.98;3.72;;;;;;;;;;5047307;28;20037;-72
2022/07/23 12:02:48;;;;;;;10.15;3.85;;;;;;;;;;5048295;28;20033;-73
2022/07/23 12:05:16;;;;;;;7.80;4.10;;;;;;;;;;5047598;28;20037;-73
2022/07/23 12:07:49;;;;;;;11.73;4.05;;;;;;;;;;5048538;28;20079;-73
2022/07/23 12:10:25;;;;;;;8.35;3.92;;;;;;;;;;5048384;28;20033;-73
2022/07/23 12:12:55;;;;;;;10.30;3.58;;;;;;;;;;5048127;28;20388;-75
2022/07/23 12:15:24;;;;;;;9.43;4.00;;;;;;;;;;5052933;28;20082;-74
2022/07/23 12:17:52;;;;;;;7.57;3.92;;;;;;;;;;5064777;28;20029;-74
2022/07/23 12:20:30;;;;;;;9.50;4.28;;;;;;;;;;5058309;28;20471;-75
2022/07/23 12:22:59;;;;;;;6.22;3.63;;;;;;;;;;5057179;28;20029;-75
2022/07/23 12:25:27;;;;;;;9.80;3.53;;;;;;;;;;5047702;28;20032;-72
2022/07/23 12:28:01;;;;;;;5.20;3.45;;;;;;;;;;5047090;28;20037;-72
2022/07/23 12:30:49;;;;;;;10.00;4.13;;;;;;;;;;5056238;28;20396;-75
2022/07/23 12:33:24;;;;;;;10.95;3.70;;;;;;;;;;5053092;28;20487;-73
2022/07/23 12:35:51;;;;;;;7.03;4.10;;;;;;;;;;5053731;28;20052;-73
2022/07/23 12:38:20;;;;;;;5.93;3.90;;;;;;;;;;5053468;28;20387;-74
2022/07/23 12:40:47;;;;;;;7.93;3.95;;;;;;;;;;5053759;28;20116;-73
2022/07/23 12:43:24;;;;;;;9.40;4.00;;;;;;;;;;5053382;28;20535;-73
2022/07/23 12:45:52;;;;;;;7.38;3.88;;;;;;;;;;5053688;28;20178;-73
2022/07/23 12:48:21;;;;;;;9.55;4.20;;;;;;;;;;5051076;28;20040;-76
2022/07/23 12:51:02;;;;;;;12.82;4.20;;;;;;;;;;5053400;28;20039;-77
2022/07/23 12:53:42;;;;;;;7.97;4.03;;;;;;;;;;5053793;28;20029;-75
2022/07/23 12:56:11;;;;;;;7.20;4.50;;;;;;;;;;5053939;28;20029;-75
2022/07/23 12:58:57;;;;;;;8.52;4.00;;;;;;;;;;5051850;28;20116;-77
2022/07/23 13:01:26;;;;;;;10.02;3.63;;;;;;;;;;5049683;28;20030;-76
2022/07/23 13:04:04;;;;;;;7.35;3.72;;;;;;;;;;5041235;28;20136;-77
2022/07/23 13:06:33;;;;;;;10.73;4.15;;;;;;;;;;5036742;28;20028;-76
2022/07/23 13:08:59;;;;;;;9.45;3.92;;;;;;;;;;5033184;28;20030;-76
2022/07/23 13:11:25;;;;;;;9.23;3.78;;;;;;;;;;5039192;28;20352;-77
2022/07/23 13:13:50;;;;;;;6.50;3.67;;;;;;;;;;5049477;28;20032;-77
2022/07/23 13:16:17;;;;;;;8.45;3.75;;;;;;;;;;5040939;28;20029;-76
2022/07/23 13:18:42;;;;;;;6.65;3.65;;;;;;;;;;5032801;28;20041;-75
2022/07/23 13:21:08;;;;;;;10.20;3.58;;;;;;;;;;5033335;28;20109;-76
2022/07/23 13:23:35;;;;;;;8.95;3.80;;;;;;;;;;5046129;28;20025;-76
2022/07/23 13:26:01;;;;;;;6.32;3.63;;;;;;;;;;5068215;28;20033;-75
2022/07/23 13:28:27;;;;;;;9.25;4.13;;;;;;;;;;5053052;28;20111;-75
2022/07/23 13:30:53;;;;;;;13.13;3.95;;;;;;;;;;5042250;28;20041;-76
2022/07/23 13:33:22;;;;;;;10.60;3.97;;;;;;;;;;5035037;28;20029;-79
2022/07/23 13:35:49;;;;;;;7.00;4.03;;;;;;;;;;5040527;28;20030;-78
2022/07/23 13:38:15;;;;;;;10.45;3.80;;;;;;;;;;5038790;28;20031;-79
2022/07/23 13:40:44;;;;;;;8.60;4.28;;;;;;;;;;5044715;28;20083;-77
2022/07/23 13:43:11;;;;;;;9.88;3.70;;;;;;;;;;5051638;28;20021;-78
2022/07/23 13:45:38;;;;;;;7.53;3.50;;;;;;;;;;5052431;28;20116;-78
2022/07/23 13:48:04;;;;;;;10.40;3.70;;;;;;;;;;5045908;28;20529;-79
2022/07/23 13:50:30;;;;;;;9.23;3.60;;;;;;;;;;5035230;28;20057;-77
2022/07/23 13:52:56;;;;;;;9.18;3.60;;;;;;;;;;5032510;28;20081;-78
2022/07/23 13:55:22;;;;;;;7.70;3.80;;;;;;;;;;5045354;28;20048;-77
2022/07/23 13:57:48;;;;;;;8.82;4.10;;;;;;;;;;5034634;28;20025;-78
2022/07/23 14:00:15;;;;;;;10.00;3.90;;;;;;;;;;5038284;28;20765;-80
2022/07/23 14:02:41;;;;;;;10.57;4.00;;;;;;;;;;5035508;28;20100;-78
2022/07/23 14:05:09;;;;;;;7.63;3.72;;;;;;;;;;5046088;28;20417;-77
2022/07/23 14:07:36;;;;;;;11.60;3.90;;;;;;;;;;5038400;28;20167;-79
2022/07/23 14:10:07;;;;;;;14.55;4.00;;;;;;;;;;5041374;28;20044;-76
2022/07/23 14:12:33;;;;;;;10.27;4.07;;;;;;;;;;5035102;28;20164;-77
2022/07/23 14:14:59;;;;;;;7.28;3.45;;;;;;;;;;5042801;28;20108;-75
2022/07/23 14:17:25;;;;;;;8.93;4.15;;;;;;;;;;5031773;28;20356;-77
2022/07/23 14:19:51;;;;;;;11.38;4.45;;;;;;;;;;5041297;28;20048;-75
2022/07/23 14:22:17;;;;;;;11.30;3.97;;;;;;;;;;5052259;28;20053;-74
2022/07/23 14:24:43;;;;;;;11.68;3.95;;;;;;;;;;5052142;28;20071;-75
2022/07/23 14:27:09;;;;;;;6.93;3.80;;;;;;;;;;5051749;28;20542;-75
2022/07/23 14:29:35;;;;;;;5.97;4.00;;;;;;;;;;5051569;28;20388;-76
2022/07/23 14:32:02;;;;;;;8.57;4.20;;;;;;;;;;5041682;28;20099;-78
2022/07/23 14:34:28;;;;;;;9.57;4.28;;;;;;;;;;5029727;28;20454;-75
2022/07/23 14:36:54;;;;;;;6.20;3.63;;;;;;;;;;5031492;28;20033;-76
2022/07/23 14:39:20;;;;;;;7.18;3.80;;;;;;;;;;5031926;28;20048;-77
2022/07/23 14:41:46;;;;;;;9.07;3.70;;;;;;;;;;5031464;28;20113;-78
2022/07/23 14:44:12;;;;;;;6.22;3.72;;;;;;;;;;5032614;28;20061;-77
2022/07/23 14:46:38;;;;;;;8.18;3.70;;;;;;;;;;5031938;28;20534;-77
2022/07/23 14:49:04;;;;;;;7.07;3.72;;;;;;;;;;5031032;28;20112;-76
2022/07/23 14:51:31;;;;;;;10.63;4.00;;;;;;;;;;5031991;28;20445;-77
2022/07/23 14:53:56;;;;;;;7.70;3.75;;;;;;;;;;5031245;28;20554;-77
2022/07/23 14:56:22;;;;;;;5.28;3.55;;;;;;;;;;5031033;28;20037;-77
2022/07/23 14:58:48;;;;;;;9.10;3.75;;;;;;;;;;5031501;28;20052;-76
2022/07/23 15:01:14;;;;;;;9.50;4.18;;;;;;;;;;5030527;28;20033;-77
2022/07/23 15:03:40;;;;;;;6.10;3.60;;;;;;;;;;5030914;28;20029;-76
2022/07/23 15:06:06;;;;;;;7.63;3.58;;;;;;;;;;5031267;28;20041;-78
2022/07/23 15:08:33;;;;;;;6.40;3.80;;;;;;;;;;5032548;28;20029;-78
2022/07/23 15:10:58;;;;;;;6.70;3.42;;;;;;;;;;5031969;28;20037;-77
2022/07/23 15:13:24;;;;;;;10.57;4.07;;;;;;;;;;5032477;28;20029;-77
2022/07/23 15:15:50;;;;;;;6.75;3.50;;;;;;;;;;5032655;28;20029;-77
2022/07/23 15:18:16;;;;;;;10.98;4.28;;;;;;;;;;5032356;28;20034;-76
2022/07/23 15:20:42;;;;;;;7.90;3.78;;;;;;;;;;5032184;28;20037;-79
2022/07/23 15:23:08;;;;;;;6.80;3.95;;;;;;;;;;5037108;28;20029;-77
2022/07/23 15:25:35;;;;;;;8.32;3.53;;;;;;;;;;5041968;28;20044;-77
2022/07/23 15:28:01;;;;;;;7.32;4.05;;;;;;;;;;5045781;28;20156;-78
2022/07/23 15:30:27;;;;;;;6.20;3.78;;;;;;;;;;5031880;28;20042;-76
2022/07/23 15:32:54;;;;;;;9.00;3.80;;;;;;;;;;5032056;28;20030;-79
2022/07/23 15:35:20;;;;;;;10.20;4.13;;;;;;;;;;5038864;28;20033;-78
2022/07/23 15:37:46;;;;;;;6.80;3.88;;;;;;;;;;5052064;28;20116;-80
2022/07/23 15:40:13;;;;;;;9.18;4.20;;;;;;;;;;5049052;28;20164;-79
2022/07/23 15:42:39;;;;;;;5.85;3.40;;;;;;;;;;5031893;28;20373;-81
2022/07/23 15:45:06;;;;;;;13.75;3.28;;;;;;;;;;5032053;28;20037;-81
2022/07/23 15:47:32;;;;;;;9.85;3.97;;;;;;;;;;5031572;28;20091;-81
2022/07/23 15:49:57;;;;;;;11.57;4.15;;;;;;;;;;5031963;28;20484;-82
2022/07/23 15:52:23;;;;;;;7.82;4.53;;;;;;;;;;5031952;28;20092;-83
2022/07/23 15:54:50;;;;;;;8.27;3.95;;;;;;;;;;5031981;28;20049;-76
2022/07/23 15:57:16;;;;;;;10.75;4.13;;;;;;;;;;5031853;28;20032;-74
2022/07/23 15:59:42;;;;;;;8.30;3.40;;;;;;;;;;5031667;28;20037;-76
2022/07/23 16:02:08;;;;;;;12.25;4.10;;;;;;;;;;5031151;28;20387;-86
2022/07/23 16:04:34;;;;;;;9.50;4.30;;;;;;;;;;5031504;28;20511;-76
2022/07/23 16:07:00;;;;;;;11.98;4.05;;;;;;;;;;5035369;28;20174;-77
2022/07/23 16:09:26;;;;;;;9.40;3.95;;;;;;;;;;5034462;28;20537;-79
2022/07/23 16:11:54;;;;;;;6.32;3.88;;;;;;;;;;5035398;28;20064;-79
2022/07/23 16:14:21;;;;;;;7.85;4.35;;;;;;;;;;5042828;28;20037;-77
2022/07/23 16:16:47;;;;;;;7.88;4.18;;;;;;;;;;5054927;28;20118;-80
2022/07/23 16:19:13;;;;;;;8.13;4.07;;;;;;;;;;5038731;28;20065;-77
2022/07/23 16:21:39;;;;;;;12.93;4.53;;;;;;;;;;5033743;28;20373;-79
2022/07/23 16:24:05;;;;;;;9.80;3.92;;;;;;;;;;5038510;28;20125;-79
2022/07/23 16:26:31;;;;;;;8.55;4.10;;;;;;;;;;5054119;28;20376;-80
2022/07/23 16:28:57;;;;;;;8.15;4.25;;;;;;;;;;5054728;28;20068;-78